createdAt,value
2023-03-20T00:01:41.303Z,100364.72
2023-03-20T00:04:10.736Z,100364.53
2023-03-20T00:06:38.049Z,100357.66
2023-03-20T00:09:06.956Z,100368.72
2023-03-20T00:11:36.223Z,100368.81
2023-03-20T00:14:05.939Z,100376.63
2023-03-20T00:16:34.682Z,100373.94
2023-03-20T00:19:03.871Z,100376.31
2023-03-20T00:21:31.470Z,100384.25
2023-03-20T00:23:58.803Z,100375.78
2023-03-20T00:26:29.747Z,100374.16
2023-03-20T00:28:57.747Z,100383.09
2023-03-20T00:31:26.594Z,100381.72
2023-03-20T00:33:54.536Z,100364.31
2023-03-20T00:36:23.199Z,100378.44
2023-03-20T00:38:50.464Z,100377.47
2023-03-20T00:41:26.356Z,100373.81
2023-03-20T00:43:55.339Z,100377.03
2023-03-20T00:46:22.731Z,100369.44
2023-03-20T00:48:50.699Z,100367.06
2023-03-20T00:51:18.278Z,100375.56
2023-03-20T00:53:46.904Z,100378.66
2023-03-20T00:56:29.795Z,100374.97
2023-03-20T00:58:57.781Z,100377.22
2023-03-20T01:01:25.089Z,100375.28
2023-03-20T01:03:52.615Z,100376.66
2023-03-20T01:06:19.890Z,100371.41
2023-03-20T01:08:48.805Z,100371.63
2023-03-20T01:11:17.816Z,100373.91
2023-03-20T01:13:45.222Z,100370.78
2023-03-20T01:16:19.981Z,100367.56
2023-03-20T01:18:47.305Z,100366.53
2023-03-20T01:21:14.616Z,100370.38
2023-03-20T01:23:42.604Z,100359.66
2023-03-20T01:26:19.903Z,100361.56
2023-03-20T01:28:47.524Z,100360.59
2023-03-20T01:31:15.200Z,100366.84
2023-03-20T01:33:42.521Z,100368.88
2023-03-20T01:36:11.719Z,100365.34
2023-03-20T01:38:39.352Z,100370.69
2023-03-20T01:41:08.475Z,100362.44
2023-03-20T01:43:37.084Z,100365.00
2023-03-20T01:46:14.486Z,100361.25
2023-03-20T01:48:57.757Z,100376.91
2023-03-20T01:51:25.963Z,100359.88
2023-03-20T01:53:55.211Z,100353.97
2023-03-20T01:56:22.506Z,100360.81
2023-03-20T01:58:54.451Z,100367.16
2023-03-20T02:01:21.750Z,100364.69
2023-03-20T02:03:51.820Z,100365.31
2023-03-20T02:06:21.882Z,100363.44
2023-03-20T02:08:50.263Z,100359.25
2023-03-20T02:11:18.734Z,100361.97
2023-03-20T02:13:47.160Z,100358.44
2023-03-20T02:16:16.385Z,100361.66
2023-03-20T02:18:44.767Z,100364.97
2023-03-20T02:21:24.375Z,100366.34
2023-03-20T02:24:27.441Z,100358.31
2023-03-20T02:27:03.757Z,100361.88
2023-03-20T02:29:50.641Z,100362.47
2023-03-20T02:32:32.832Z,100362.69
2023-03-20T02:35:13.980Z,100363.75
2023-03-20T02:37:50.527Z,100369.97
2023-03-20T02:40:22.589Z,100363.00
2023-03-20T02:42:55.104Z,100361.31
2023-03-20T02:45:27.075Z,100364.22
2023-03-20T02:47:57.371Z,100363.75
2023-03-20T02:50:29.722Z,100363.81
2023-03-20T02:53:00.196Z,100362.75
2023-03-20T02:55:32.855Z,100368.72
2023-03-20T02:58:04.182Z,100372.03
2023-03-20T03:00:35.556Z,100373.69
2023-03-20T03:03:06.881Z,100370.44
2023-03-20T03:05:37.849Z,100373.38
2023-03-20T03:08:07.857Z,100368.72
2023-03-20T03:10:37.317Z,100368.81
2023-03-20T03:13:06.776Z,100366.88
2023-03-20T03:15:36.309Z,100370.09
2023-03-20T03:18:06.403Z,100371.47
2023-03-20T03:20:35.952Z,100366.75
2023-03-20T03:23:03.478Z,100357.78
2023-03-20T03:25:34.653Z,100362.38
2023-03-20T03:28:04.902Z,100369.97
2023-03-20T03:30:34.067Z,100357.31
2023-03-20T03:33:08.211Z,100350.41
2023-03-20T03:35:36.079Z,100350.88
2023-03-20T03:38:06.639Z,100362.38
2023-03-20T03:40:38.169Z,100357.44
2023-03-20T03:43:08.725Z,100363.44
2023-03-20T03:45:39.094Z,100354.34
2023-03-20T03:48:08.462Z,100362.19
2023-03-20T03:50:38.689Z,100356.25
2023-03-20T03:53:08.951Z,100360.88
2023-03-20T03:55:40.582Z,100361.72
2023-03-20T03:58:10.595Z,100356.44
2023-03-20T04:00:38.880Z,100362.03
2023-03-20T04:03:07.226Z,100363.25
2023-03-20T04:05:37.435Z,100372.25
2023-03-20T04:08:05.640Z,100365.25
2023-03-20T04:10:32.938Z,100360.97
2023-03-20T04:13:01.646Z,100359.81
2023-03-20T04:15:29.018Z,100366.66
2023-03-20T04:17:56.290Z,100364.50
2023-03-20T04:20:23.630Z,100366.88
2023-03-20T04:22:50.891Z,100374.16
2023-03-20T04:25:19.258Z,100372.38
2023-03-20T04:27:46.833Z,100376.34
2023-03-20T04:30:15.615Z,100377.44
2023-03-20T04:32:42.990Z,100369.41
2023-03-20T04:35:10.450Z,100371.75
2023-03-20T04:37:37.724Z,100375.78
2023-03-20T04:40:05.370Z,100375.94
2023-03-20T04:42:32.691Z,100373.28
2023-03-20T04:44:59.971Z,100369.44
2023-03-20T04:47:28.569Z,100368.88
2023-03-20T04:49:55.820Z,100374.53
2023-03-20T04:52:23.092Z,100375.59
2023-03-20T04:54:50.387Z,100373.81
2023-03-20T04:57:17.836Z,100378.59
2023-03-20T04:59:45.218Z,100378.28
2023-03-20T05:02:14.879Z,100386.94
2023-03-20T05:04:43.730Z,100379.03
2023-03-20T05:07:11.288Z,100387.69
2023-03-20T05:09:38.557Z,100385.00
2023-03-20T05:12:06.203Z,100388.25
2023-03-20T05:14:33.494Z,100400.03
2023-03-20T05:17:01.262Z,100398.47
2023-03-20T05:19:28.581Z,100397.03
2023-03-20T05:21:57.152Z,100398.63
2023-03-20T05:24:24.393Z,100405.38
2023-03-20T05:26:51.802Z,100411.41
2023-03-20T05:29:19.087Z,100416.69
2023-03-20T05:31:46.386Z,100408.81
2023-03-20T05:34:13.723Z,100419.44
2023-03-20T05:36:41.343Z,100418.31
2023-03-20T05:39:09.922Z,100421.47
2023-03-20T05:41:37.333Z,100424.66
2023-03-20T05:44:04.608Z,100420.59
2023-03-20T05:46:31.910Z,100423.66
2023-03-20T05:48:59.253Z,100420.00
2023-03-20T05:51:27.092Z,100434.56
2023-03-20T05:53:54.367Z,100440.50
2023-03-20T05:56:23.063Z,100451.22
2023-03-20T05:58:51.936Z,100439.69
2023-03-20T06:01:21.496Z,100442.88
2023-03-20T06:03:48.894Z,100440.72
2023-03-20T06:06:16.493Z,100446.59
2023-03-20T06:08:44.610Z,100440.66
2023-03-20T06:11:12.190Z,100439.28
2023-03-20T06:13:40.825Z,100442.50
2023-03-20T06:16:08.932Z,100442.41
2023-03-20T06:18:36.280Z,100442.78
2023-03-20T06:21:05.806Z,100442.88
2023-03-20T06:23:33.125Z,100441.19
2023-03-20T06:26:00.405Z,100454.19
2023-03-20T06:28:27.661Z,100447.66
2023-03-20T06:30:57.178Z,100449.63
2023-03-20T06:33:24.783Z,100450.06
2023-03-20T06:35:52.882Z,100452.22
2023-03-20T06:38:20.393Z,100441.19
2023-03-20T06:40:47.705Z,100452.03
2023-03-20T06:43:14.965Z,100446.44
2023-03-20T06:45:42.355Z,100451.47
2023-03-20T06:48:11.174Z,100451.34
2023-03-20T06:50:38.449Z,100449.41
2023-03-20T06:53:06.662Z,100441.06
2023-03-20T06:55:34.099Z,100452.44
2023-03-20T06:58:01.452Z,100446.59
2023-03-20T07:00:29.687Z,100452.09
2023-03-20T07:02:56.956Z,100450.00
2023-03-20T07:05:26.131Z,100434.25
2023-03-20T07:07:53.797Z,100435.03
2023-03-20T07:10:21.132Z,100440.94
2023-03-20T07:12:48.427Z,100433.94
2023-03-20T07:15:15.791Z,100444.00
2023-03-20T07:17:43.299Z,100450.41
2023-03-20T07:20:11.331Z,100443.13
2023-03-20T07:22:41.521Z,100445.91
2023-03-20T07:25:09.555Z,100452.53
2023-03-20T07:27:37.685Z,100449.31
2023-03-20T07:30:06.112Z,100455.59
2023-03-20T07:32:33.499Z,100450.09
2023-03-20T07:35:00.959Z,100461.88
2023-03-20T07:37:28.213Z,100457.22
2023-03-20T07:39:56.781Z,100464.06
2023-03-20T07:42:24.039Z,100463.97
2023-03-20T07:44:51.534Z,100467.50
2023-03-20T07:47:18.872Z,100465.53
2023-03-20T07:49:46.682Z,100464.69
2023-03-20T07:52:13.951Z,100474.50
2023-03-20T07:54:41.228Z,100467.75
2023-03-20T07:57:09.841Z,100465.69
2023-03-20T07:59:37.120Z,100474.97
2023-03-20T08:02:04.429Z,100479.25
2023-03-20T08:04:31.770Z,100481.09
2023-03-20T08:06:59.229Z,100480.78
2023-03-20T08:09:26.979Z,100479.38
2023-03-20T08:11:54.233Z,100473.75
2023-03-20T08:14:22.913Z,100478.16
2023-03-20T08:17:02.343Z,100481.38
2023-03-20T08:19:38.250Z,100478.59
2023-03-20T08:22:05.570Z,100483.47
2023-03-20T08:24:32.954Z,100482.59
2023-03-20T08:27:00.284Z,100484.22
2023-03-20T08:29:28.947Z,100480.94
2023-03-20T08:31:57.725Z,100482.81
2023-03-20T08:34:26.318Z,100485.69
2023-03-20T08:36:53.687Z,100481.59
2023-03-20T08:39:21.771Z,100476.50
2023-03-20T08:41:49.072Z,100482.47
2023-03-20T08:44:16.399Z,100481.56
2023-03-20T08:46:46.435Z,100488.44
2023-03-20T08:49:13.802Z,100481.56
2023-03-20T08:51:41.250Z,100487.94
2023-03-20T08:54:08.526Z,100486.34
2023-03-20T08:56:35.826Z,100489.16
2023-03-20T08:59:03.693Z,100492.25
2023-03-20T09:01:47.991Z,100497.38
2023-03-20T09:04:17.247Z,100490.78
2023-03-20T09:06:44.499Z,100495.06
2023-03-20T09:09:15.655Z,100493.59
2023-03-20T09:11:42.930Z,100485.28
2023-03-20T09:14:10.584Z,100490.06
2023-03-20T09:16:38.018Z,100493.88
2023-03-20T09:19:06.054Z,100497.38
2023-03-20T09:21:34.734Z,100497.47
2023-03-20T09:24:02.049Z,100496.72
2023-03-20T09:26:29.322Z,100498.34
2023-03-20T09:28:56.603Z,100492.94
2023-03-20T09:31:23.998Z,100488.28
2023-03-20T09:33:51.290Z,100497.75
2023-03-20T09:36:18.681Z,100497.13
2023-03-20T09:38:47.444Z,100508.78
2023-03-20T09:41:18.902Z,100504.72
2023-03-20T09:43:52.270Z,100505.97
2023-03-20T09:46:24.722Z,100498.69
2023-03-20T09:48:55.860Z,100504.78
2023-03-20T09:51:29.495Z,100500.53
2023-03-20T09:54:01.462Z,100508.72
2023-03-20T09:56:30.557Z,100508.09
2023-03-20T09:58:58.860Z,100510.22
2023-03-20T10:01:28.189Z,100522.34
2023-03-20T10:03:57.554Z,100523.53
2023-03-20T10:06:25.486Z,100518.00
2023-03-20T10:08:52.994Z,100511.06
2023-03-20T10:11:32.140Z,100516.25
2023-03-20T10:14:02.988Z,100519.94
2023-03-20T10:16:38.108Z,100517.19
2023-03-20T10:19:08.804Z,100518.00
2023-03-20T10:21:40.579Z,100517.22
2023-03-20T10:24:15.793Z,100509.75
2023-03-20T10:26:44.593Z,100510.69
2023-03-20T10:29:17.720Z,100507.28
2023-03-20T10:31:48.410Z,100515.69
2023-03-20T10:34:25.831Z,100510.50
2023-03-20T10:36:57.795Z,100497.13
2023-03-20T10:39:33.853Z,100513.31
2023-03-20T10:42:04.152Z,100505.47
2023-03-20T10:44:33.901Z,100502.78
2023-03-20T10:47:02.505Z,100505.94
2023-03-20T10:49:32.307Z,100506.25
2023-03-20T10:52:02.118Z,100503.06
2023-03-20T10:54:39.162Z,100498.41
2023-03-20T10:57:13.478Z,100505.97
2023-03-20T10:59:43.216Z,100505.25
2023-03-20T11:02:12.211Z,100503.75
2023-03-20T11:04:39.556Z,100516.63
2023-03-20T11:07:13.860Z,100513.69
2023-03-20T11:09:41.599Z,100509.56
2023-03-20T11:12:16.491Z,100508.06
2023-03-20T11:14:43.808Z,100499.31
2023-03-20T11:17:11.652Z,100502.34
2023-03-20T11:19:40.118Z,100509.47
2023-03-20T11:22:09.030Z,100492.75
2023-03-20T11:24:37.931Z,100497.38
2023-03-20T11:27:06.441Z,100500.44
2023-03-20T11:29:36.079Z,100504.19
2023-03-20T11:32:08.255Z,100503.34
2023-03-20T11:34:37.785Z,100512.84
2023-03-20T11:37:10.462Z,100499.13
2023-03-20T11:39:39.968Z,100506.13
2023-03-20T11:42:22.385Z,100503.19
2023-03-20T11:44:57.389Z,100486.28
2023-03-20T11:47:27.302Z,100484.09
2023-03-20T11:49:56.023Z,100492.00
2023-03-20T11:52:25.914Z,100483.09
2023-03-20T11:54:55.319Z,100486.59
2023-03-20T11:57:31.732Z,100487.06
2023-03-20T12:00:02.044Z,100485.69
2023-03-20T12:02:29.510Z,100479.81
2023-03-20T12:05:00.363Z,100482.56
2023-03-20T12:07:30.610Z,100478.75
2023-03-20T12:09:59.259Z,100474.94
2023-03-20T12:12:35.151Z,100471.28
2023-03-20T12:15:07.852Z,100471.13
2023-03-20T12:17:39.292Z,100466.72
2023-03-20T12:20:13.050Z,100471.56
2023-03-20T12:22:43.837Z,100469.34
2023-03-20T12:25:18.931Z,100464.94
2023-03-20T12:27:48.931Z,100468.81
2023-03-20T12:30:20.900Z,100472.38
2023-03-20T12:32:54.225Z,100470.84
2023-03-20T12:35:26.068Z,100472.78
2023-03-20T12:37:53.339Z,100474.53
2023-03-20T12:40:27.850Z,100466.00
2023-03-20T12:43:03.000Z,100459.00
2023-03-20T12:45:33.920Z,100462.88
2023-03-20T12:48:06.145Z,100453.66
2023-03-20T12:50:35.662Z,100459.00
2023-03-20T12:53:20.816Z,100454.41
2023-03-20T12:55:56.517Z,100451.94
2023-03-20T12:58:28.087Z,100451.53
2023-03-20T13:01:01.472Z,100454.34
2023-03-20T13:03:38.507Z,100448.75
2023-03-20T13:06:10.780Z,100448.00
2023-03-20T13:09:01.382Z,100443.47
2023-03-20T13:11:32.033Z,100439.81
2023-03-20T13:14:02.473Z,100439.50
2023-03-20T13:16:38.326Z,100446.22
2023-03-20T13:19:08.507Z,100431.00
2023-03-20T13:21:40.295Z,100434.16
2023-03-20T13:24:23.438Z,100433.97
2023-03-20T13:26:54.468Z,100435.22
2023-03-20T13:29:28.588Z,100432.66
2023-03-20T13:32:04.422Z,100435.16
2023-03-20T13:34:39.197Z,100428.03
2023-03-20T13:37:25.856Z,100422.94
2023-03-20T13:39:59.792Z,100420.41
2023-03-20T13:42:30.589Z,100423.19
2023-03-20T13:45:05.842Z,100418.00
2023-03-20T13:47:37.141Z,100422.13
2023-03-20T13:50:25.103Z,100418.75
2023-03-20T13:52:57.352Z,100412.22
2023-03-20T13:55:27.993Z,100410.84
2023-03-20T13:58:04.525Z,100412.69
2023-03-20T14:00:34.407Z,100416.88
2023-03-20T14:03:13.970Z,100421.47
2023-03-20T14:05:42.698Z,100412.75
2023-03-20T14:08:22.230Z,100419.50
2023-03-20T14:10:49.613Z,100417.22
2023-03-20T14:13:19.603Z,100413.63
2023-03-20T14:15:50.163Z,100421.38
2023-03-20T14:18:19.421Z,100412.16
2023-03-20T14:20:53.227Z,100412.31
2023-03-20T14:23:21.700Z,100422.78
2023-03-20T14:25:49.503Z,100417.22
2023-03-20T14:28:28.203Z,100417.41
2023-03-20T14:31:10.482Z,100419.47
2023-03-20T14:33:42.792Z,100420.44
2023-03-20T14:36:19.300Z,100421.91
2023-03-20T14:38:54.295Z,100427.69
2023-03-20T14:41:27.282Z,100424.25
2023-03-20T14:44:01.954Z,100418.13
2023-03-20T14:46:35.258Z,100420.25
2023-03-20T14:49:16.828Z,100425.13
2023-03-20T14:51:45.920Z,100419.25
2023-03-20T14:54:27.124Z,100410.91
2023-03-20T14:56:54.667Z,100420.81
2023-03-20T14:59:23.328Z,100410.78
2023-03-20T15:01:57.295Z,100411.03
2023-03-20T15:04:29.261Z,100412.38
2023-03-20T15:06:58.777Z,100408.94
2023-03-20T15:09:27.900Z,100410.19
2023-03-20T15:11:59.564Z,100427.78
2023-03-20T15:14:28.338Z,100421.19
2023-03-20T15:16:59.282Z,100420.44
2023-03-20T15:19:28.620Z,100419.16
2023-03-20T15:21:56.528Z,100426.31
2023-03-20T15:24:24.362Z,100420.34
2023-03-20T15:26:53.355Z,100420.50
2023-03-20T15:29:21.105Z,100431.06
2023-03-20T15:32:06.469Z,100434.53
2023-03-20T15:34:41.837Z,100428.25
2023-03-20T15:37:13.045Z,100418.50
2023-03-20T15:39:43.251Z,100420.34
2023-03-20T15:42:13.381Z,100418.31
2023-03-20T15:44:41.642Z,100414.63
2023-03-20T15:47:12.845Z,100416.91
2023-03-20T15:49:42.433Z,100418.09
2023-03-20T15:52:23.105Z,100415.06
2023-03-20T15:54:50.602Z,100408.47
2023-03-20T15:57:21.194Z,100416.94
2023-03-20T15:59:48.503Z,100416.25
2023-03-20T16:02:19.590Z,100415.91
2023-03-20T16:04:49.811Z,100419.31
2023-03-20T16:07:21.188Z,100416.00
2023-03-20T16:09:50.069Z,100419.75
2023-03-20T16:12:18.346Z,100418.66
2023-03-20T16:14:46.856Z,100418.13
2023-03-20T16:17:14.566Z,100411.06
2023-03-20T16:19:42.086Z,100424.72
2023-03-20T16:22:15.968Z,100422.72
2023-03-20T16:24:46.399Z,100416.16
2023-03-20T16:27:15.554Z,100426.41
2023-03-20T16:29:44.144Z,100413.00
2023-03-20T16:32:19.358Z,100422.69
2023-03-20T16:34:49.660Z,100421.03
2023-03-20T16:37:25.501Z,100423.03
2023-03-20T16:40:03.485Z,100420.22
2023-03-20T16:42:31.057Z,100420.66
2023-03-20T16:44:59.381Z,100410.88
2023-03-20T16:47:34.640Z,100410.47
2023-03-20T16:50:12.941Z,100418.56
2023-03-20T16:52:42.432Z,100420.00
2023-03-20T16:55:14.594Z,100419.34
2023-03-20T16:57:44.574Z,100414.63
2023-03-20T17:00:20.674Z,100423.44
2023-03-20T17:02:50.602Z,100422.59
2023-03-20T17:05:19.294Z,100420.63
2023-03-20T17:07:50.587Z,100422.22
2023-03-20T17:10:20.131Z,100424.03
2023-03-20T17:12:48.474Z,100425.84
2023-03-20T17:15:16.636Z,100416.09
2023-03-20T17:17:44.488Z,100413.91
2023-03-20T17:20:18.241Z,100418.31
2023-03-20T17:22:45.894Z,100414.47
2023-03-20T17:25:14.816Z,100418.59
2023-03-20T17:27:42.169Z,100420.66
2023-03-20T17:30:16.321Z,100421.00
2023-03-20T17:32:43.649Z,100427.63
2023-03-20T17:35:11.390Z,100423.78
2023-03-20T17:37:38.753Z,100425.63
2023-03-20T17:40:06.690Z,100420.31
2023-03-20T17:42:35.317Z,100417.84
2023-03-20T17:45:03.456Z,100421.72
2023-03-20T17:47:31.352Z,100416.13
2023-03-20T17:49:58.902Z,100417.22
2023-03-20T17:52:27.319Z,100423.63
2023-03-20T17:54:54.908Z,100410.28
2023-03-20T17:57:23.299Z,100409.88
2023-03-20T17:59:51.871Z,100420.41
2023-03-20T18:02:19.618Z,100412.22
2023-03-20T18:04:47.339Z,100412.91
2023-03-20T18:07:15.062Z,100410.63
2023-03-20T18:09:43.003Z,100417.03
2023-03-20T18:12:11.056Z,100418.75
2023-03-20T18:14:39.115Z,100419.44
2023-03-20T18:17:08.039Z,100418.94
2023-03-20T18:19:35.399Z,100426.75
2023-03-20T18:22:03.631Z,100426.94
2023-03-20T18:24:30.953Z,100415.53
2023-03-20T18:26:59.027Z,100412.88
2023-03-20T18:29:26.458Z,100418.78
2023-03-20T18:31:53.837Z,100418.06
2023-03-20T18:34:22.733Z,100416.66
2023-03-20T18:36:50.077Z,100413.22
2023-03-20T18:39:18.378Z,100417.31
2023-03-20T18:41:45.691Z,100416.66
2023-03-20T18:44:13.244Z,100410.66
2023-03-20T18:46:41.108Z,100418.16
2023-03-20T18:49:11.144Z,100421.94
2023-03-20T18:51:39.704Z,100418.81
2023-03-20T18:54:06.973Z,100424.84
2023-03-20T18:56:36.860Z,100429.59
2023-03-20T18:59:06.431Z,100435.47
2023-03-20T19:01:34.171Z,100442.84
2023-03-20T19:04:01.654Z,100428.78
2023-03-20T19:06:29.964Z,100434.03
2023-03-20T19:08:58.719Z,100439.09
2023-03-20T19:11:26.272Z,100435.13
2023-03-20T19:13:54.340Z,100430.94
2023-03-20T19:16:26.644Z,100428.25
2023-03-20T19:18:54.148Z,100438.13
2023-03-20T19:21:25.986Z,100429.97
2023-03-20T19:23:54.021Z,100427.50
2023-03-20T19:26:24.435Z,100427.06
2023-03-20T19:28:51.745Z,100423.09
2023-03-20T19:31:19.448Z,100429.97
2023-03-20T19:33:46.735Z,100423.84
2023-03-20T19:36:22.096Z,100427.38
2023-03-20T19:38:49.409Z,100411.28
2023-03-20T19:41:16.702Z,100415.38
2023-03-20T19:43:52.367Z,100416.88
2023-03-20T19:46:38.245Z,100417.72
2023-03-20T19:49:07.014Z,100409.34
2023-03-20T19:51:34.383Z,100417.13
2023-03-20T19:54:02.017Z,100419.91
2023-03-20T19:56:29.314Z,100409.25
2023-03-20T19:58:57.902Z,100411.41
2023-03-20T20:01:25.681Z,100405.06
2023-03-20T20:03:54.928Z,100404.22
2023-03-20T20:06:29.503Z,100407.78
2023-03-20T20:08:58.536Z,100403.81
2023-03-20T20:11:26.022Z,100409.50
2023-03-20T20:14:10.301Z,100402.19
2023-03-20T20:16:42.845Z,100409.97
2023-03-20T20:19:10.520Z,100408.69
2023-03-20T20:24:25.376Z,100401.56
2023-03-20T20:26:59.684Z,100404.63
2023-03-20T20:29:34.537Z,100410.63
2023-03-20T20:32:03.240Z,100401.31
2023-03-20T20:40:06.751Z,100408.94
2023-03-20T20:42:34.114Z,100397.81
2023-03-20T20:45:01.403Z,100400.69
2023-03-20T20:47:30.125Z,100401.94
2023-03-20T20:49:57.762Z,100403.00
2023-03-20T20:52:25.119Z,100403.16
2023-03-20T20:54:52.408Z,100406.63
2023-03-20T20:57:19.657Z,100408.44
2023-03-20T20:59:47.360Z,100400.28
2023-03-20T21:02:17.290Z,100405.25
2023-03-20T21:04:46.201Z,100397.47
2023-03-20T21:07:14.002Z,100401.56
2023-03-20T21:09:41.814Z,100405.47
2023-03-20T21:12:26.443Z,100404.00
2023-03-20T21:14:58.742Z,100405.72
2023-03-20T21:17:26.552Z,100406.78
2023-03-20T21:19:55.659Z,100413.41
2023-03-20T21:22:23.495Z,100403.34
2023-03-20T21:24:52.029Z,100410.06
2023-03-20T21:27:21.634Z,100406.53
2023-03-20T21:29:50.038Z,100409.94
2023-03-20T21:32:19.016Z,100407.94
2023-03-20T21:34:46.542Z,100414.75
2023-03-20T21:38:17.865Z,100417.13
2023-03-20T21:40:04.100Z,100414.44
2023-03-20T21:42:31.427Z,100412.63
2023-03-20T21:45:53.449Z,100410.91
2023-03-20T21:51:02.927Z,100415.97
2023-03-20T21:54:20.773Z,100411.84
2023-03-20T21:56:50.583Z,100409.56
2023-03-20T22:02:05.886Z,100417.44
2023-03-20T22:07:54.127Z,100428.28
2023-03-20T22:13:58.785Z,100418.34
2023-03-20T22:16:31.258Z,100420.88
2023-03-20T22:25:04.807Z,100433.50
2023-03-20T22:30:28.883Z,100436.34
2023-03-20T22:36:16.311Z,100434.41
2023-03-20T22:41:49.315Z,100441.72
2023-03-20T22:44:33.949Z,100442.66
2023-03-20T22:46:44.799Z,100443.41
2023-03-20T22:49:12.840Z,100443.22
2023-03-20T22:51:50.723Z,100440.63
2023-03-20T22:54:27.736Z,100431.22
2023-03-20T22:56:55.465Z,100430.34
2023-03-20T22:59:24.092Z,100431.88
2023-03-20T23:01:51.529Z,100423.38
2023-03-20T23:04:18.878Z,100426.50
2023-03-20T23:06:46.357Z,100424.69
2023-03-20T23:09:15.729Z,100419.38
2023-03-20T23:11:43.368Z,100413.16
2023-03-20T23:14:20.527Z,100411.03
2023-03-20T23:16:50.753Z,100414.66
2023-03-20T23:19:18.151Z,100420.38
2023-03-20T23:21:45.434Z,100416.28
2023-03-20T23:24:12.695Z,100419.84
2023-03-20T23:26:40.069Z,100419.19
2023-03-20T23:29:07.669Z,100425.84
2023-03-20T23:31:34.949Z,100425.31
2023-03-20T23:34:03.582Z,100431.13
2023-03-20T23:36:38.091Z,100422.44
2023-03-20T23:39:05.748Z,100420.31
2023-03-20T23:42:01.860Z,100425.66
2023-03-20T23:44:20.355Z,100413.00
2023-03-20T23:46:48.334Z,100421.28
2023-03-20T23:49:17.321Z,100432.00
2023-03-20T23:51:44.802Z,100419.84
2023-03-20T23:54:12.653Z,100419.41
2023-03-20T23:56:39.948Z,100409.00
2023-03-20T23:59:18.701Z,100412.22
